Time;durP1;ratioP1;P1;durP2;ratioP2;P2;SDS_P1;SDS_P2;PMS_P1;PMS_P2;Temp;Humidity;BMP_temperature;BMP_pressure;BME280_temperature;BME280_humidity;BME280_pressure;Samples;Min_cycle;Max_cycle;Signal;HPM_P1;HPM_P2
2024/01/26 00:01:53;;;;;;;90.75;45.42;;;;;;;-142.57;100.00;55769.72;5051544;28;20113;-81
2024/01/26 00:04:18;;;;;;;81.57;41.05;;;;;;;-142.57;100.00;55733.34;5051634;28;20060;-80
2024/01/26 00:06:44;;;;;;;79.60;36.85;;;;;;;-142.57;100.00;55779.84;5050312;28;20030;-79
2024/01/26 00:09:11;;;;;;;66.38;35.83;;;;;;;-142.57;100.00;55739.41;5051255;28;20038;-82
2024/01/26 00:11:37;;;;;;;72.68;34.38;;;;;;;-142.57;100.00;55717.19;5051841;28;20033;-80
2024/01/26 00:14:07;;;;;;;62.72;33.30;;;;;;;-142.57;100.00;55757.59;5052385;28;20057;-79
2024/01/26 00:16:33;;;;;;;59.40;30.13;;;;;;;-142.57;100.00;55761.66;5049303;28;20112;-80
2024/01/26 00:18:59;;;;;;;61.13;28.92;;;;;;;-142.57;100.00;55806.09;5047466;28;20037;-80
2024/01/26 00:21:24;;;;;;;58.78;28.15;;;;;;;-142.57;100.00;55717.19;5054167;28;20033;-81
2024/01/26 00:23:50;;;;;;;51.80;27.10;;;;;;;-142.57;100.00;55733.34;5055136;28;20052;-81
2024/01/26 00:26:16;;;;;;;57.33;28.05;;;;;;;-142.57;100.00;55705.06;5053805;28;20044;-80
2024/01/26 00:28:41;;;;;;;60.47;28.17;;;;;;;-142.57;100.00;55692.94;5053165;28;20033;-81
2024/01/26 00:31:07;;;;;;;61.05;27.55;;;;;;;-142.57;100.00;55703.06;5052421;28;20097;-80
2024/01/26 00:33:35;;;;;;;55.50;29.20;;;;;;;-142.57;100.00;55680.81;5052290;28;20037;-82
2024/01/26 00:36:01;;;;;;;58.25;28.88;;;;;;;-142.57;100.00;55713.16;5052882;28;20055;-80
2024/01/26 00:38:26;;;;;;;57.10;29.00;;;;;;;-142.57;100.00;55725.28;5052943;28;20034;-80
2024/01/26 00:40:52;;;;;;;47.40;27.38;;;;;;;-142.57;100.00;55733.34;5031816;28;20037;-82
2024/01/26 00:43:18;;;;;;;53.88;27.17;;;;;;;-142.57;100.00;55745.47;5036921;28;20116;-81
2024/01/26 00:45:43;;;;;;;50.00;25.55;;;;;;;-142.57;100.00;55751.53;5037476;28;20036;-80
2024/01/26 00:48:09;;;;;;;52.05;25.58;;;;;;;-142.57;100.00;55749.53;5037536;28;20034;-83
2024/01/26 00:50:35;;;;;;;49.70;26.35;;;;;;;-142.57;100.00;55729.31;5038561;28;20061;-80
2024/01/26 00:53:01;;;;;;;49.13;27.35;;;;;;;-142.57;100.00;55692.94;5055756;28;20029;-81
2024/01/26 00:55:29;;;;;;;48.83;26.02;;;;;;;-142.57;100.00;55757.59;5059483;28;20042;-80
2024/01/26 00:57:59;;;;;;;55.03;26.67;;;;;;;-142.57;100.00;55804.06;5038448;28;20046;-79
2024/01/26 01:00:25;;;;;;;51.10;26.67;;;;;;;-142.57;100.00;55773.78;5018319;28;20394;-83
2024/01/26 01:02:52;;;;;;;51.10;25.75;;;;;;;-142.57;100.00;55753.56;5018106;28;20459;-81
2024/01/26 01:05:18;;;;;;;58.50;28.85;;;;;;;-142.57;100.00;55765.69;5036088;28;20034;-80
2024/01/26 01:07:44;;;;;;;57.60;29.15;;;;;;;-142.57;100.00;55745.47;5035449;28;20060;-82
2024/01/26 01:10:13;;;;;;;58.25;29.67;;;;;;;-142.57;100.00;55721.22;5017861;28;20186;-81
2024/01/26 01:12:42;;;;;;;68.18;32.65;;;;;;;-142.57;100.00;55717.19;5034258;28;20162;-81
2024/01/26 01:15:11;;;;;;;60.95;32.90;;;;;;;-142.57;100.00;55751.53;5035668;28;20479;-82
2024/01/26 01:17:39;;;;;;;66.15;34.80;;;;;;;-142.57;100.00;55777.81;5035283;28;20041;-82
2024/01/26 01:20:06;;;;;;;75.03;35.90;;;;;;;-142.57;100.00;55765.69;5035393;28;20041;-81
2024/01/26 01:22:32;;;;;;;69.60;37.25;;;;;;;-142.57;100.00;55707.09;5034096;28;20045;-81
2024/01/26 01:25:01;;;;;;;72.70;37.40;;;;;;;-142.57;100.00;55749.53;5035570;28;20433;-80
2024/01/26 01:27:27;;;;;;;66.43;34.10;;;;;;;-142.57;100.00;55802.06;5017299;28;20113;-82
2024/01/26 01:29:52;;;;;;;65.50;34.58;;;;;;;-142.57;100.00;55802.06;5035108;28;20037;-81
2024/01/26 01:32:17;;;;;;;70.55;36.47;;;;;;;-142.57;100.00;55747.50;5035093;28;20057;-81
2024/01/26 01:34:43;;;;;;;73.05;36.17;;;;;;;-142.57;100.00;55789.94;5035170;28;20116;-81
2024/01/26 01:37:09;;;;;;;64.18;33.85;;;;;;;-142.57;100.00;55717.19;5034998;28;20037;-82
2024/01/26 01:39:35;;;;;;;66.70;34.67;;;;;;;-142.57;100.00;55735.38;5034604;28;20036;-82
2024/01/26 01:42:01;;;;;;;81.82;39.25;;;;;;;-142.57;100.00;55749.53;5035171;28;20438;-80
2024/01/26 01:44:26;;;;;;;64.22;34.25;;;;;;;-142.57;100.00;55701.03;5034235;28;20060;-82
2024/01/26 01:46:52;;;;;;;66.05;35.55;;;;;;;-142.57;100.00;55707.09;5017330;28;20034;-81
2024/01/26 01:49:18;;;;;;;74.70;39.20;;;;;;;-142.57;100.00;55721.22;5034345;28;20462;-81
2024/01/26 01:51:46;;;;;;;75.78;40.15;;;;;;;-142.57;100.00;55707.09;5016850;28;20079;-82
2024/01/26 01:54:13;;;;;;;75.00;39.80;;;;;;;-142.57;100.00;55701.03;5034476;28;20125;-81
2024/01/26 01:56:39;;;;;;;90.30;41.47;;;;;;;-142.57;100.00;55640.41;5033435;28;20041;-81
2024/01/26 01:59:08;;;;;;;78.57;39.85;;;;;;;-142.57;100.00;55701.03;5034654;28;20029;-82
2024/01/26 02:01:34;;;;;;;71.68;38.58;;;;;;;-142.57;100.00;55664.66;5034706;28;20505;-81
2024/01/26 02:04:02;;;;;;;85.07;41.08;;;;;;;-142.57;100.00;55642.44;5033180;28;20137;-81
2024/01/26 02:06:28;;;;;;;85.45;41.10;;;;;;;-142.57;100.00;55674.75;5033595;28;20429;-82
2024/01/26 02:08:54;;;;;;;82.65;41.65;;;;;;;-142.57;100.00;55684.88;5034496;28;20112;-80
2024/01/26 02:11:20;;;;;;;88.75;42.05;;;;;;;-142.57;100.00;55692.94;5034713;28;20164;-82
2024/01/26 02:13:45;;;;;;;85.35;41.67;;;;;;;-142.57;100.00;55668.69;5034283;28;20061;-82
2024/01/26 02:16:13;;;;;;;85.80;41.05;;;;;;;-142.57;100.00;55682.84;5016671;28;20143;-82
2024/01/26 02:18:42;;;;;;;84.30;41.35;;;;;;;-142.57;100.00;55664.66;5033134;28;20482;-80
2024/01/26 02:21:07;;;;;;;80.25;40.30;;;;;;;-142.57;100.00;55668.69;5034342;28;20545;-82
2024/01/26 02:23:33;;;;;;;75.28;39.65;;;;;;;-142.57;100.00;55678.81;5033887;28;20121;-80
2024/01/26 02:25:59;;;;;;;73.35;39.13;;;;;;;-142.57;100.00;55697.00;5016428;28;20126;-83
2024/01/26 02:28:24;;;;;;;84.80;39.35;;;;;;;-142.57;100.00;55690.94;5035910;28;20038;-82
2024/01/26 02:30:50;;;;;;;80.78;39.30;;;;;;;-142.57;100.00;55650.50;5038368;28;20064;-82
2024/01/26 02:33:15;;;;;;;89.43;40.58;;;;;;;-142.57;100.00;55614.16;5051205;28;20029;-80
2024/01/26 02:35:41;;;;;;;81.50;39.33;;;;;;;-142.57;100.00;55622.22;5054765;28;20038;-82
2024/01/26 02:38:06;;;;;;;85.85;40.50;;;;;;;-142.57;100.00;55648.50;5041840;28;20136;-82
2024/01/26 02:40:32;;;;;;;78.88;38.55;;;;;;;-142.57;100.00;55626.28;5034473;28;20076;-82
2024/01/26 02:42:58;;;;;;;73.03;35.90;;;;;;;-142.57;100.00;55640.41;5033979;28;20399;-83
2024/01/26 02:45:24;;;;;;;73.60;34.72;;;;;;;-142.57;100.00;55652.53;5034148;28;20029;-80
2024/01/26 02:47:50;;;;;;;69.72;33.40;;;;;;;-142.57;100.00;55632.34;5033427;28;20509;-82
2024/01/26 02:50:15;;;;;;;72.50;34.80;;;;;;;-142.57;100.00;55648.50;5033842;28;20037;-79
2024/01/26 02:52:41;;;;;;;67.18;34.10;;;;;;;-142.57;100.00;55612.13;5033332;28;20037;-81
2024/01/26 02:55:06;;;;;;;68.03;34.97;;;;;;;-142.57;100.00;55642.44;5033395;28;20090;-82
2024/01/26 02:57:32;;;;;;;62.90;34.03;;;;;;;-142.57;100.00;55642.44;5034017;28;20038;-81
2024/01/26 02:59:57;;;;;;;73.28;34.72;;;;;;;-142.57;100.00;55628.28;5033969;28;20037;-81
2024/01/26 03:02:23;;;;;;;62.15;30.45;;;;;;;-142.57;100.00;55632.34;5033951;28;20034;-81
2024/01/26 03:04:48;;;;;;;62.30;31.40;;;;;;;-142.57;100.00;55644.47;5033621;28;20045;-82
2024/01/26 03:07:14;;;;;;;60.53;30.38;;;;;;;-142.57;100.00;55620.22;5033675;28;20057;-82
2024/01/26 03:09:39;;;;;;;71.80;30.15;;;;;;;-142.57;100.00;55634.34;5018093;28;20052;-82
2024/01/26 03:12:05;;;;;;;58.20;28.73;;;;;;;-142.57;100.00;55658.59;5048286;28;20032;-82
2024/01/26 03:14:30;;;;;;;64.72;31.65;;;;;;;-142.57;100.00;55610.09;5022989;28;20028;-83
2024/01/26 03:16:56;;;;;;;77.57;33.42;;;;;;;-142.57;100.00;55616.16;5042264;28;20029;-81
2024/01/26 03:19:21;;;;;;;69.00;33.75;;;;;;;-142.57;100.00;55608.09;5033424;28;20056;-83
2024/01/26 03:21:47;;;;;;;66.80;32.13;;;;;;;-142.57;100.00;55593.94;5033757;28;20068;-82
2024/01/26 03:24:12;;;;;;;62.78;32.15;;;;;;;-142.57;100.00;55597.97;5033259;28;20174;-82
2024/01/26 03:26:38;;;;;;;64.20;32.22;;;;;;;-142.57;100.00;55543.44;5033456;28;20501;-80
2024/01/26 03:29:07;;;;;;;63.15;31.52;;;;;;;-142.57;100.00;55595.97;5015796;28;20032;-83
2024/01/26 03:31:33;;;;;;;61.53;30.42;;;;;;;-142.57;100.00;55549.50;5033672;28;20041;-80
2024/01/26 03:33:59;;;;;;;63.47;31.25;;;;;;;-142.57;100.00;55523.22;5033118;28;20034;-83
2024/01/26 03:36:24;;;;;;;63.88;31.25;;;;;;;-142.57;100.00;55527.28;5033030;28;20036;-81
2024/01/26 03:38:50;;;;;;;59.47;28.77;;;;;;;-142.57;100.00;55579.81;5033245;28;20038;-83
2024/01/26 03:41:15;;;;;;;55.55;27.52;;;;;;;-142.57;100.00;55593.94;5033134;28;20446;-82
2024/01/26 03:43:41;;;;;;;58.20;28.60;;;;;;;-142.57;100.00;55575.75;5015582;28;20379;-82
2024/01/26 03:46:08;;;;;;;53.72;27.40;;;;;;;-142.57;100.00;55579.81;5033864;28;20042;-81
2024/01/26 03:48:33;;;;;;;54.92;28.02;;;;;;;-142.57;100.00;55549.50;5037287;28;20025;-81
2024/01/26 03:50:59;;;;;;;59.35;30.17;;;;;;;-142.57;100.00;55563.63;5035864;28;20037;-82
2024/01/26 03:53:25;;;;;;;56.90;29.85;;;;;;;-142.57;100.00;55577.78;5036208;28;20044;-82
2024/01/26 03:55:52;;;;;;;65.00;29.45;;;;;;;-142.57;100.00;55573.75;5036046;28;20041;-84
2024/01/26 03:58:18;;;;;;;59.17;29.38;;;;;;;-142.57;100.00;55587.88;5036729;28;20487;-79
2024/01/26 04:00:43;;;;;;;55.53;28.35;;;;;;;-142.57;100.00;55579.81;5038048;28;20033;-83
2024/01/26 04:03:09;;;;;;;58.05;27.17;;;;;;;-142.57;100.00;55547.47;5057228;28;20577;-83
2024/01/26 04:05:34;;;;;;;57.40;28.65;;;;;;;-142.57;100.00;55555.56;5056715;28;20020;-81
2024/01/26 04:08:00;;;;;;;60.95;28.55;;;;;;;-142.57;100.00;55505.03;5054676;28;20033;-80
2024/01/26 04:10:26;;;;;;;59.95;29.15;;;;;;;-142.57;100.00;55519.19;5045734;28;20040;-81
2024/01/26 04:12:51;;;;;;;54.10;28.23;;;;;;;-142.57;100.00;55545.44;5050823;28;20040;-79
2024/01/26 04:15:17;;;;;;;53.78;28.10;;;;;;;-142.57;100.00;55591.91;5054501;28;20094;-79
2024/01/26 04:17:42;;;;;;;58.97;30.40;;;;;;;-142.57;100.00;55545.44;5040379;28;20025;-82
2024/01/26 04:20:08;;;;;;;61.05;30.48;;;;;;;-142.57;100.00;55535.34;5018982;28;20038;-82
2024/01/26 04:22:34;;;;;;;63.90;30.08;;;;;;;-142.57;100.00;55551.50;5035173;28;20030;-81
2024/01/26 04:24:59;;;;;;;70.00;29.17;;;;;;;-142.57;100.00;55569.69;5037134;28;20041;-82
2024/01/26 04:27:25;;;;;;;64.53;31.58;;;;;;;-142.57;100.00;55577.78;5036764;28;20121;-79
2024/01/26 04:29:53;;;;;;;60.78;29.70;;;;;;;-142.57;100.00;55600.00;5048420;28;20036;-82
2024/01/26 04:32:21;;;;;;;59.47;29.52;;;;;;;-142.57;100.00;55600.00;5050671;28;20025;-81
2024/01/26 04:34:47;;;;;;;55.88;28.98;;;;;;;-142.57;100.00;55567.69;5047525;28;20029;-82
2024/01/26 04:37:12;;;;;;;62.55;30.88;;;;;;;-142.57;100.00;55604.03;5039236;28;20036;-80
2024/01/26 04:39:38;;;;;;;63.90;31.40;;;;;;;-142.57;100.00;55573.75;5055062;28;20037;-81
2024/01/26 04:42:04;;;;;;;67.63;31.50;;;;;;;-142.57;100.00;55563.63;5049365;28;20060;-81
2024/01/26 04:44:30;;;;;;;60.50;29.73;;;;;;;-142.57;100.00;55583.84;5026079;28;20478;-78
2024/01/26 04:46:57;;;;;;;59.95;30.52;;;;;;;-142.57;100.00;55591.91;5047266;28;20033;-80
2024/01/26 04:49:23;;;;;;;71.05;32.95;;;;;;;-142.57;100.00;55563.63;5045839;28;20038;-79
2024/01/26 04:51:51;;;;;;;70.40;34.72;;;;;;;-142.57;100.00;55585.84;5044080;28;20040;-80
2024/01/26 04:54:20;;;;;;;80.85;40.65;;;;;;;-142.57;100.00;55595.97;5047177;28;20037;-79
2024/01/26 04:56:46;;;;;;;73.68;38.45;;;;;;;-142.57;100.00;55583.84;5035782;28;20486;-82
2024/01/26 04:59:11;;;;;;;73.70;35.65;;;;;;;-142.57;100.00;55575.75;5051887;28;20041;-81
2024/01/26 05:01:36;;;;;;;72.80;34.45;;;;;;;-142.57;100.00;55583.84;5045472;28;20032;-82
2024/01/26 05:04:03;;;;;;;75.65;37.40;;;;;;;-142.57;100.00;55571.72;5054200;28;20482;-80
2024/01/26 05:06:29;;;;;;;80.00;39.90;;;;;;;-142.57;100.00;55595.97;5053313;28;20057;-80
2024/01/26 05:08:55;;;;;;;72.40;36.65;;;;;;;-142.57;100.00;55595.97;5054039;28;20455;-81
2024/01/26 05:11:20;;;;;;;84.00;40.58;;;;;;;-142.57;100.00;55591.91;5054603;28;20075;-80
2024/01/26 05:13:46;;;;;;;81.55;38.88;;;;;;;-142.57;100.00;55602.03;5054730;28;20025;-82
2024/01/26 05:16:11;;;;;;;81.90;41.05;;;;;;;-142.57;100.00;55600.00;5054083;28;20119;-79
2024/01/26 05:18:38;;;;;;;86.50;41.92;;;;;;;-142.57;100.00;55585.84;5055352;28;20112;-81
2024/01/26 05:21:03;;;;;;;84.75;40.63;;;;;;;-142.57;100.00;55575.75;5054527;28;20040;-81
2024/01/26 05:23:29;;;;;;;92.07;42.00;;;;;;;-142.57;100.00;55559.59;5055152;28;20037;-82
2024/01/26 05:25:54;;;;;;;86.75;41.70;;;;;;;-142.57;100.00;55591.91;5050104;28;20029;-81
2024/01/26 05:28:21;;;;;;;88.03;42.05;;;;;;;-142.57;100.00;55573.75;5056948;28;20064;-81
2024/01/26 05:30:46;;;;;;;94.57;43.25;;;;;;;-142.57;100.00;55569.69;5070159;28;20017;-81
2024/01/26 05:33:13;;;;;;;92.35;44.88;;;;;;;-142.57;100.00;55543.44;5092526;28;20041;-78
2024/01/26 05:35:38;;;;;;;96.38;44.17;;;;;;;-142.57;100.00;55563.63;5068900;28;20029;-80
2024/01/26 05:38:04;;;;;;;93.10;45.25;;;;;;;-142.57;100.00;55606.06;5077144;28;20077;-79
2024/01/26 05:40:29;;;;;;;98.40;48.25;;;;;;;-142.57;100.00;55567.69;5072324;28;20413;-80
2024/01/26 05:42:55;;;;;;;94.28;44.10;;;;;;;-142.57;100.00;55593.94;5070257;28;20033;-82
2024/01/26 05:45:20;;;;;;;95.95;46.55;;;;;;;-142.57;100.00;55585.84;5055246;28;20036;-81
2024/01/26 05:47:47;;;;;;;113.63;51.97;;;;;;;-142.57;100.00;55595.97;5055010;28;20498;-82
2024/01/26 05:50:14;;;;;;;137.13;60.97;;;;;;;-142.57;100.00;55569.69;5042264;28;20430;-80
2024/01/26 05:52:41;;;;;;;234.95;73.55;;;;;;;-142.57;100.00;55569.69;5054334;28;20040;-81
2024/01/26 05:55:07;;;;;;;222.95;73.22;;;;;;;-142.57;100.00;55567.69;5036236;28;20065;-79
2024/01/26 05:57:33;;;;;;;296.48;77.20;;;;;;;-142.57;100.00;55585.84;5036477;28;20501;-77
2024/01/26 06:00:01;;;;;;;244.30;78.72;;;;;;;-142.57;100.00;55604.03;5054639;28;20029;-86
2024/01/26 06:02:27;;;;;;;318.80;85.57;;;;;;;-142.57;100.00;55575.75;5054035;28;20179;-84
2024/01/26 06:04:53;;;;;;;278.15;88.55;;;;;;;-142.57;100.00;55589.91;5054999;28;20069;-85
2024/01/26 06:07:18;;;;;;;642.95;92.05;;;;;;;-142.57;100.00;55622.22;5037248;28;20524;-84
2024/01/26 06:09:44;;;;;;;426.40;89.32;;;;;;;-142.57;100.00;55632.34;5037743;28;20041;-88
2024/01/26 06:12:09;;;;;;;457.55;96.28;;;;;;;-142.57;100.00;55634.34;5045304;28;20029;-88
2024/01/26 06:14:35;;;;;;;213.00;85.97;;;;;;;-142.57;100.00;55672.75;5054248;28;20066;-83
2024/01/26 06:17:01;;;;;;;413.98;86.70;;;;;;;-142.57;100.00;55608.09;5056487;28;20029;-87
2024/01/26 06:19:27;;;;;;;370.90;84.75;;;;;;;-142.57;100.00;55579.81;5050300;28;20401;-84
2024/01/26 06:21:52;;;;;;;522.85;86.63;;;;;;;-142.57;100.00;55587.88;5043021;28;20037;-85
2024/01/26 06:24:18;;;;;;;664.17;88.82;;;;;;;-142.57;100.00;55624.25;5036686;28;20129;-79
2024/01/26 06:26:43;;;;;;;503.38;85.90;;;;;;;-142.57;100.00;55624.25;5021307;28;20042;-85
2024/01/26 06:29:08;;;;;;;349.52;83.90;;;;;;;-142.57;100.00;55608.09;5036447;28;20445;-80
2024/01/26 06:31:34;;;;;;;633.30;88.70;;;;;;;-142.57;100.00;55644.47;5050092;28;20041;-82
2024/01/26 06:34:00;;;;;;;329.90;83.30;;;;;;;-142.57;100.00;55600.00;5043761;28;20036;-85
2024/01/26 06:36:25;;;;;;;236.98;83.68;;;;;;;-142.57;100.00;55616.16;5046077;28;20486;-87
2024/01/26 06:38:54;;;;;;;226.15;83.28;;;;;;;-142.57;100.00;55614.16;5036383;28;20471;-84
2024/01/26 06:41:19;;;;;;;409.33;85.30;;;;;;;-142.57;100.00;55616.16;5036126;28;20070;-87
2024/01/26 06:43:51;;;;;;;322.30;82.57;;;;;;;-142.57;100.00;55600.00;5031377;28;20046;-83
2024/01/26 06:46:23;;;;;;;461.40;85.57;;;;;;;-142.57;100.00;55547.47;5050571;28;20509;-85
2024/01/26 06:48:49;;;;;;;572.28;86.85;;;;;;;-142.57;100.00;55565.66;5045294;28;20534;-86
2024/01/26 06:51:15;;;;;;;190.80;79.85;;;;;;;-142.57;100.00;55565.66;5047079;28;20048;-83
2024/01/26 06:53:41;;;;;;;185.90;79.40;;;;;;;-142.57;100.00;55644.47;5046912;28;20038;-84
2024/01/26 06:56:07;;;;;;;162.68;76.55;;;;;;;-142.57;100.00;55622.22;5044350;28;20041;-83
2024/01/26 06:58:33;;;;;;;195.30;75.47;;;;;;;-142.57;100.00;55634.34;5045184;28;20374;-83
2024/01/26 07:01:01;;;;;;;185.63;76.13;;;;;;;-142.57;100.00;55581.81;5036877;28;20025;-84
2024/01/26 07:03:27;;;;;;;200.15;77.55;;;;;;;-142.57;100.00;55531.31;5032175;28;20087;-85
2024/01/26 07:05:53;;;;;;;194.48;80.22;;;;;;;-142.57;100.00;55600.00;5053354;28;20060;-81
2024/01/26 07:08:18;;;;;;;154.63;79.15;;;;;;;-142.57;100.00;55591.91;5053406;28;20033;-84
2024/01/26 07:10:47;;;;;;;143.23;73.85;;;;;;;-142.57;100.00;55595.97;5053653;28;20095;-84
2024/01/26 07:13:13;;;;;;;142.18;71.75;;;;;;;-142.57;100.00;55535.34;5053786;28;20033;-84
2024/01/26 07:15:41;;;;;;;139.18;69.75;;;;;;;-142.57;100.00;55513.13;5036694;28;20037;-85
2024/01/26 07:18:06;;;;;;;130.13;66.10;;;;;;;-142.57;100.00;55515.16;5054291;28;20096;-84
2024/01/26 07:20:32;;;;;;;127.20;65.40;;;;;;;-142.57;100.00;55511.09;5054556;28;20057;-86
2024/01/26 07:22:57;;;;;;;120.07;63.08;;;;;;;-142.57;100.00;55478.78;5040940;28;20099;-86
2024/01/26 07:25:23;;;;;;;125.57;62.33;;;;;;;-142.57;100.00;55496.97;5059538;28;20397;-82
2024/01/26 07:27:49;;;;;;;125.95;64.03;;;;;;;-142.57;100.00;55496.97;5062389;28;20040;-84
2024/01/26 07:30:17;;;;;;;118.68;59.50;;;;;;;-142.57;100.00;55571.72;5045399;28;20033;-86
2024/01/26 07:32:42;;;;;;;129.57;63.20;;;;;;;-142.57;100.00;55535.34;5046342;28;20051;-86
2024/01/26 07:35:09;;;;;;;117.35;60.92;;;;;;;-142.57;100.00;55567.69;5056844;28;20116;-85
2024/01/26 07:37:35;;;;;;;126.40;63.20;;;;;;;-142.57;100.00;55589.91;5055829;28;20045;-83
2024/01/26 07:40:04;;;;;;;116.72;59.30;;;;;;;-142.57;100.00;55624.25;5058065;28;20497;-83
2024/01/26 07:42:31;;;;;;;116.70;58.75;;;;;;;-142.57;100.00;55672.75;5058326;28;20083;-84
2024/01/26 07:48:19;;;;;;;121.57;59.53;;;;;;;-142.57;100.00;55709.09;5048856;28;20041;-85
2024/01/26 07:50:45;;;;;;;120.32;58.13;;;;;;;-142.57;100.00;55737.41;5055414;28;20124;-84
2024/01/26 07:53:11;;;;;;;110.88;57.25;;;;;;;-142.57;100.00;55703.06;5039204;28;20523;-89
2024/01/26 07:55:37;;;;;;;147.40;57.03;;;;;;;-142.57;100.00;55737.41;5040279;28;20048;-87
2024/01/26 07:58:06;;;;;;;119.53;53.63;;;;;;;-142.57;100.00;55785.91;5039806;28;20049;-88
2024/01/26 08:00:32;;;;;;;135.32;58.75;;;;;;;-142.57;100.00;55757.59;5040913;28;20382;-90
2024/01/26 08:02:58;;;;;;;127.28;58.83;;;;;;;-142.57;100.00;55789.94;5026314;28;20106;-89
2024/01/26 08:05:24;;;;;;;117.13;54.28;;;;;;;-142.57;100.00;55852.56;5042710;28;20148;-88
2024/01/26 08:07:55;;;;;;;115.13;55.38;;;;;;;-142.57;100.00;55862.69;5025407;28;20555;-87
2024/01/26 08:10:21;;;;;;;119.63;56.17;;;;;;;-142.57;100.00;55882.88;5041914;28;20103;-87
2024/01/26 08:12:47;;;;;;;109.53;56.08;;;;;;;-142.57;100.00;55943.50;5061088;28;20033;-88
2024/01/26 08:15:13;;;;;;;120.82;55.50;;;;;;;-142.57;100.00;56024.31;5060518;28;20033;-89
2024/01/26 08:17:39;;;;;;;112.97;54.22;;;;;;;-142.57;100.00;56056.66;5077086;28;20021;-89
2024/01/26 08:20:05;;;;;;;138.25;56.88;;;;;;;-142.57;100.00;56008.16;5058385;28;20489;-87
2024/01/26 08:22:31;;;;;;;109.88;52.95;;;;;;;-142.57;100.00;55955.63;5056450;28;20097;-86
2024/01/26 08:25:00;;;;;;;108.25;55.08;;;;;;;-142.57;100.00;55886.91;5074023;28;20461;-85
2024/01/26 08:27:29;;;;;;;115.18;53.40;;;;;;;-142.57;100.00;55870.75;5074104;28;20032;-89
2024/01/26 08:29:54;;;;;;;112.10;53.15;;;;;;;-142.57;100.00;55858.63;5079498;28;20386;-87
2024/01/26 08:32:20;;;;;;;123.45;56.00;;;;;;;-142.57;100.00;55852.56;5038826;28;20037;-89
2024/01/26 08:34:46;;;;;;;129.50;56.00;;;;;;;-142.57;100.00;55793.97;5082593;28;20115;-87
2024/01/26 08:37:12;;;;;;;112.97;53.40;;;;;;;-142.57;100.00;55814.19;5079010;28;20037;-86
2024/01/26 08:39:37;;;;;;;108.80;54.63;;;;;;;-142.57;100.00;55806.09;5098129;28;20044;-88
2024/01/26 08:42:03;;;;;;;115.18;56.30;;;;;;;-142.57;100.00;55757.59;5099648;28;20029;-90
2024/01/26 08:44:32;;;;;;;125.43;58.97;;;;;;;-142.57;100.00;55781.84;5053522;28;20090;-88
2024/01/26 08:47:01;;;;;;;111.80;58.15;;;;;;;-142.57;100.00;55715.16;5081126;28;20258;-87
2024/01/26 08:49:26;;;;;;;100.07;55.40;;;;;;;-142.57;100.00;55713.16;5046233;28;20389;-89
2024/01/26 08:51:52;;;;;;;98.72;56.65;;;;;;;-142.57;100.00;55680.81;5079562;28;20033;-86
2024/01/26 08:54:18;;;;;;;107.20;57.13;;;;;;;-142.57;100.00;55692.94;5077761;28;20033;-87
2024/01/26 08:56:44;;;;;;;95.35;53.63;;;;;;;-142.57;100.00;55680.81;5059483;28;20036;-87
2024/01/26 08:59:10;;;;;;;92.80;52.35;;;;;;;-142.57;100.00;55632.34;5059559;28;20086;-88
2024/01/26 09:01:37;;;;;;;94.50;53.28;;;;;;;-142.57;100.00;55614.16;5079738;28;20028;-89
2024/01/26 09:04:06;;;;;;;88.43;50.58;;;;;;;-142.57;100.00;55553.53;5077616;28;20036;-86
2024/01/26 09:06:32;;;;;;;93.28;52.58;;;;;;;-142.57;100.00;55579.81;5059701;28;20044;-89
2024/01/26 09:08:58;;;;;;;86.70;50.40;;;;;;;-142.57;100.00;55565.66;5076570;28;20086;-87
2024/01/26 09:11:24;;;;;;;93.22;51.67;;;;;;;-142.57;100.00;55549.50;5059029;28;20047;-89
2024/01/26 09:13:50;;;;;;;96.43;50.90;;;;;;;-142.57;100.00;55600.00;5059203;28;20045;-88
2024/01/26 09:16:16;;;;;;;95.80;52.20;;;;;;;-142.57;100.00;55557.56;5059032;28;20029;-89
2024/01/26 09:18:41;;;;;;;111.07;54.47;;;;;;;-142.57;100.00;55545.44;5080951;28;20036;-86
2024/01/26 09:21:10;;;;;;;114.55;56.13;;;;;;;-142.57;100.00;55571.72;5082722;28;20036;-89
2024/01/26 09:23:37;;;;;;;103.70;54.92;;;;;;;-142.57;100.00;55583.84;5046630;28;20045;-90
2024/01/26 09:26:06;;;;;;;100.10;54.38;;;;;;;-142.57;100.00;55583.84;5051897;28;20033;-91
2024/01/26 09:28:32;;;;;;;113.18;55.15;;;;;;;-142.57;100.00;55614.16;5061263;28;20025;-91
2024/01/26 09:30:57;;;;;;;108.53;54.95;;;;;;;-142.57;100.00;55757.59;5045798;28;20067;-89
2024/01/26 09:33:23;;;;;;;100.65;52.42;;;;;;;-142.57;100.00;55715.16;5080932;28;20039;-89
2024/01/26 09:35:54;;;;;;;102.85;53.10;;;;;;;-142.57;100.00;55725.28;5040409;28;20074;-90
2024/01/26 09:38:20;;;;;;;95.80;49.58;;;;;;;-142.57;100.00;55787.91;5061634;28;20036;-90
2024/01/26 09:40:46;;;;;;;112.68;51.83;;;;;;;-142.57;100.00;55854.59;5061548;28;20046;-91
2024/01/26 09:43:15;;;;;;;94.45;49.78;;;;;;;-142.57;100.00;55793.97;5072106;28;20076;-90
2024/01/26 09:45:40;;;;;;;82.03;47.25;;;;;;;-142.57;100.00;55834.38;5087335;28;20033;-89
2024/01/26 09:48:12;;;;;;;87.13;47.13;;;;;;;-142.57;100.00;55822.25;5068118;28;20050;-90
2024/01/26 09:50:38;;;;;;;94.47;46.20;;;;;;;-142.57;100.00;55826.31;5090106;28;20107;-91
2024/01/26 09:53:12;;;;;;;76.63;40.45;;;;;;;-142.57;100.00;55884.91;5072269;28;20036;-86
2024/01/26 09:55:41;;;;;;;67.90;40.22;;;;;;;-142.57;100.00;55864.69;5090842;28;20032;-93
2024/01/26 09:58:07;;;;;;;80.80;42.22;;;;;;;-142.57;100.00;55882.88;5081792;28;20032;-91
2024/01/26 10:00:33;;;;;;;75.20;42.75;;;;;;;-142.57;100.00;55874.78;5063639;28;20421;-91
2024/01/26 10:03:05;;;;;;;107.75;55.83;;;;;;;-142.57;100.00;55903.09;5080618;28;20068;-93
2024/01/26 10:05:33;;;;;;;109.88;56.08;;;;;;;-142.57;100.00;55895.00;5088232;28;20066;-87
2024/01/26 10:07:59;;;;;;;68.38;39.00;;;;;;;-142.57;100.00;55874.78;5096001;28;20061;-89
2024/01/26 10:10:27;;;;;;;77.63;43.80;;;;;;;-142.57;100.00;55923.28;5081067;28;20020;-87
2024/01/26 10:12:53;;;;;;;60.50;34.15;;;;;;;-142.57;100.00;55890.97;5091273;28;20040;-88
2024/01/26 10:15:18;;;;;;;77.53;36.58;;;;;;;-142.57;100.00;55919.25;5074558;28;20108;-86
2024/01/26 10:18:00;;;;;;;68.82;35.65;;;;;;;-142.57;100.00;55943.50;5127483;22;20132;-88
2024/01/26 10:20:26;;;;;;;63.85;34.83;;;;;;;-142.57;100.00;55955.63;5068168;28;20028;-90
2024/01/26 10:22:52;;;;;;;70.10;36.75;;;;;;;-142.57;100.00;55951.59;5068099;28;20043;-92
2024/01/26 10:25:21;;;;;;;73.93;37.85;;;;;;;-142.57;100.00;55989.97;5060776;28;20036;-91
2024/01/26 10:27:47;;;;;;;80.50;39.08;;;;;;;-142.57;100.00;55998.06;5048511;28;20510;-92
2024/01/26 10:30:14;;;;;;;79.63;37.08;;;;;;;-142.57;100.00;56036.44;5041879;28;20025;-91
2024/01/26 10:32:43;;;;;;;108.13;38.85;;;;;;;-142.57;100.00;56101.13;5061663;28;20033;-92
2024/01/26 10:35:11;;;;;;;57.80;33.95;;;;;;;-142.57;100.00;56091.00;5062528;28;20052;-92
2024/01/26 10:37:38;;;;;;;78.28;34.92;;;;;;;-142.57;100.00;56113.25;5061710;28;20045;-90
2024/01/26 10:40:09;;;;;;;69.72;35.05;;;;;;;-142.57;100.00;56167.78;5061955;28;20111;-90
2024/01/26 10:42:38;;;;;;;106.13;37.17;;;;;;;-142.57;100.00;56139.50;5070613;28;20041;-92
2024/01/26 10:45:06;;;;;;;84.65;35.67;;;;;;;-142.57;100.00;56208.22;5048479;28;20041;-93
2024/01/26 10:47:34;;;;;;;58.25;33.10;;;;;;;-142.57;100.00;56204.16;5062859;28;20045;-89
2024/01/26 10:50:05;;;;;;;65.15;34.97;;;;;;;-142.57;100.00;56190.03;5061405;28;20037;-92
2024/01/26 10:52:37;;;;;;;86.72;35.78;;;;;;;-142.57;100.00;56167.78;5066005;28;20037;-90